createdAt,value
2018-12-20T00:02:27.507Z,97.92
2018-12-20T00:04:55.279Z,97.76
2018-12-20T00:07:22.804Z,97.49
2018-12-20T00:09:50.478Z,97.01
2018-12-20T00:12:18.010Z,97.11
2018-12-20T00:14:45.542Z,97.08
2018-12-20T00:17:18.953Z,96.81
2018-12-20T00:19:46.618Z,96.48
2018-12-20T00:22:14.078Z,96.60
2018-12-20T00:24:41.783Z,96.41
2018-12-20T00:27:09.412Z,96.21
2018-12-20T00:29:36.981Z,96.17
2018-12-20T00:32:04.639Z,95.98
2018-12-20T00:34:32.288Z,95.90
2018-12-20T00:36:59.972Z,95.88
2018-12-20T00:39:27.640Z,95.73
2018-12-20T00:41:55.180Z,95.84
2018-12-20T00:44:22.717Z,95.87
2018-12-20T00:46:50.514Z,95.88
2018-12-20T00:49:18.100Z,96.03
2018-12-20T00:51:45.701Z,95.94
2018-12-20T00:54:13.420Z,96.04
2018-12-20T00:56:41.066Z,96.16
2018-12-20T00:59:08.587Z,95.97
2018-12-20T01:01:36.398Z,96.03
2018-12-20T01:04:03.885Z,96.33
2018-12-20T01:06:31.452Z,96.95
2018-12-20T01:08:59.330Z,97.16
2018-12-20T01:11:26.895Z,96.81
2018-12-20T01:13:54.675Z,96.58
2018-12-20T01:16:22.185Z,96.89
2018-12-20T01:18:49.838Z,97.65
2018-12-20T01:21:17.440Z,97.59
2018-12-20T01:23:45.101Z,97.42
2018-12-20T01:26:12.720Z,97.47
2018-12-20T01:28:40.305Z,97.39
2018-12-20T01:31:08.179Z,97.37
2018-12-20T01:33:35.682Z,97.26
2018-12-20T01:36:03.228Z,97.38
2018-12-20T01:38:30.992Z,97.28
2018-12-20T01:40:58.567Z,97.10
2018-12-20T01:43:26.151Z,97.08
2018-12-20T01:45:54.036Z,96.84
2018-12-20T01:48:21.730Z,96.71
2018-12-20T01:50:49.293Z,96.90
2018-12-20T01:53:16.864Z,96.86
2018-12-20T01:55:44.519Z,96.63
2018-12-20T01:58:12.003Z,96.89
2018-12-20T02:00:39.779Z,96.88
2018-12-20T02:03:07.391Z,96.44
2018-12-20T02:05:34.921Z,96.43
2018-12-20T02:08:02.768Z,96.37
2018-12-20T02:10:30.379Z,96.33
2018-12-20T02:12:57.905Z,96.29
2018-12-20T02:15:25.721Z,96.33
2018-12-20T02:17:53.260Z,96.44
2018-12-20T02:20:20.950Z,96.17
2018-12-20T02:22:48.598Z,96.34
2018-12-20T02:25:16.154Z,95.72
2018-12-20T02:27:43.717Z,95.11
2018-12-20T02:30:11.796Z,95.21
2018-12-20T02:32:39.206Z,94.83
2018-12-20T02:35:07.008Z,94.56
2018-12-20T02:37:34.556Z,94.85
2018-12-20T02:40:02.342Z,95.13
2018-12-20T02:42:29.746Z,94.88
2018-12-20T02:44:57.687Z,95.32
2018-12-20T02:47:25.100Z,95.90
2018-12-20T02:49:52.632Z,96.24
2018-12-20T02:52:20.342Z,96.48
2018-12-20T02:54:48.029Z,96.47
2018-12-20T02:57:15.788Z,94.72
2018-12-20T02:59:43.475Z,94.57
2018-12-20T03:02:11.197Z,94.13
2018-12-20T03:04:38.799Z,92.93
2018-12-20T03:07:06.552Z,92.81
2018-12-20T03:09:34.083Z,92.82
2018-12-20T03:12:01.660Z,91.97
2018-12-20T03:14:29.379Z,91.05
2018-12-20T03:16:57.060Z,91.63
2018-12-20T03:19:24.475Z,93.41
2018-12-20T03:21:52.117Z,93.09
2018-12-20T03:24:19.676Z,94.22
2018-12-20T03:26:47.239Z,95.86
2018-12-20T03:29:15.191Z,96.41
2018-12-20T03:31:42.528Z,96.76
2018-12-20T03:34:10.135Z,96.80
2018-12-20T03:36:37.831Z,96.54
2018-12-20T03:39:05.672Z,95.98
2018-12-20T03:41:33.132Z,95.60
2018-12-20T03:44:00.800Z,96.08
2018-12-20T03:46:28.414Z,95.75
2018-12-20T03:48:56.193Z,95.37
2018-12-20T03:51:23.956Z,95.30
2018-12-20T03:53:51.544Z,94.08
2018-12-20T03:56:19.095Z,93.45
2018-12-20T03:58:47.028Z,92.93
2018-12-20T04:01:14.539Z,93.35
2018-12-20T04:03:42.143Z,93.88
2018-12-20T04:06:09.821Z,94.01
2018-12-20T04:08:37.380Z,94.31
2018-12-20T04:11:04.946Z,94.16
2018-12-20T04:13:32.710Z,93.94
2018-12-20T04:16:00.266Z,93.84
2018-12-20T04:18:28.124Z,94.32
2018-12-20T04:20:55.497Z,93.77
2018-12-20T04:23:23.065Z,94.16
2018-12-20T04:25:50.743Z,93.31
2018-12-20T04:28:18.477Z,92.43
2018-12-20T04:30:45.955Z,92.75
2018-12-20T04:33:13.655Z,93.04
2018-12-20T04:35:41.503Z,93.61
2018-12-20T04:38:08.937Z,94.24
2018-12-20T04:40:36.556Z,94.06
2018-12-20T04:43:04.438Z,94.03
2018-12-20T04:45:32.016Z,93.37
2018-12-20T04:47:59.562Z,93.14
2018-12-20T04:50:27.274Z,91.92
2018-12-20T04:52:54.993Z,91.50
2018-12-20T04:55:22.540Z,89.24
2018-12-20T04:57:50.312Z,88.85
2018-12-20T05:00:17.874Z,88.58
2018-12-20T05:02:45.457Z,89.51
2018-12-20T05:05:13.481Z,88.88
2018-12-20T05:07:40.987Z,88.63
2018-12-20T05:10:08.469Z,89.66
2018-12-20T05:12:36.472Z,90.04
2018-12-20T05:15:04.158Z,91.07
2018-12-20T05:17:31.684Z,90.67
2018-12-20T05:19:59.384Z,91.10
2018-12-20T05:22:26.933Z,90.99
2018-12-20T05:24:54.661Z,90.78
2018-12-20T05:27:22.148Z,90.35
2018-12-20T05:29:49.921Z,89.92
2018-12-20T05:32:17.297Z,90.58
2018-12-20T05:34:45.154Z,91.62
2018-12-20T05:37:12.878Z,92.22
2018-12-20T05:39:40.270Z,91.83
2018-12-20T05:42:09.320Z,92.25
2018-12-20T05:44:36.848Z,92.54
2018-12-20T05:47:04.708Z,91.33
2018-12-20T05:49:32.378Z,90.07
2018-12-20T05:52:00.741Z,89.84
2018-12-20T05:54:28.473Z,90.48
2018-12-20T05:56:56.484Z,91.08
2018-12-20T05:59:24.038Z,91.41
2018-12-20T06:01:51.607Z,92.14
2018-12-20T06:04:19.266Z,92.14
2018-12-20T06:06:47.005Z,92.14
2018-12-20T06:09:14.772Z,92.28
2018-12-20T06:11:42.375Z,92.10
2018-12-20T06:14:09.933Z,92.59
2018-12-20T06:16:37.805Z,92.35
2018-12-20T06:19:05.438Z,91.31
2018-12-20T06:21:33.000Z,90.11
2018-12-20T06:24:00.540Z,89.94
2018-12-20T06:26:28.256Z,89.37
2018-12-20T06:28:55.801Z,88.31
2018-12-20T06:31:23.374Z,87.96
2018-12-20T06:33:51.224Z,86.94
2018-12-20T06:36:18.771Z,87.17
2018-12-20T06:38:46.333Z,88.25
2018-12-20T06:41:15.041Z,87.54
2018-12-20T06:43:42.616Z,87.45
2018-12-20T06:46:10.176Z,87.54
2018-12-20T06:48:37.898Z,86.81
2018-12-20T06:51:05.480Z,87.35
2018-12-20T06:53:33.077Z,88.32
2018-12-20T06:56:11.234Z,87.36
2018-12-20T06:58:38.799Z,87.11
2018-12-20T07:01:06.360Z,87.01
2018-12-20T07:03:34.191Z,85.36
2018-12-20T07:06:01.780Z,87.31
2018-12-20T07:08:29.346Z,89.25
2018-12-20T07:11:14.856Z,89.04
2018-12-20T07:13:42.425Z,89.35
2018-12-20T07:16:09.974Z,89.04
2018-12-20T07:18:37.719Z,89.69
2018-12-20T07:21:05.292Z,88.71
2018-12-20T07:23:32.891Z,89.02
2018-12-20T07:26:00.482Z,89.93
2018-12-20T07:28:28.072Z,89.85
2018-12-20T07:30:55.664Z,88.69
2018-12-20T07:33:23.418Z,88.28
2018-12-20T07:35:50.960Z,88.17
2018-12-20T07:38:18.549Z,88.79
2018-12-20T07:40:46.281Z,86.87
2018-12-20T07:43:13.851Z,84.16
2018-12-20T07:45:41.417Z,84.07
2018-12-20T07:48:09.308Z,84.77
2018-12-20T07:50:36.843Z,82.75
2018-12-20T07:53:04.406Z,84.61
2018-12-20T07:55:32.015Z,84.68
2018-12-20T07:57:59.567Z,84.52
2018-12-20T08:00:27.182Z,82.00
2018-12-20T08:02:54.797Z,80.95
2018-12-20T08:05:22.369Z,80.56
2018-12-20T08:07:49.925Z,81.27
2018-12-20T08:10:17.796Z,82.62
2018-12-20T08:12:45.356Z,82.25
2018-12-20T08:15:12.905Z,82.54
2018-12-20T08:17:40.510Z,82.82
2018-12-20T08:20:08.105Z,81.94
2018-12-20T08:22:35.636Z,81.92
2018-12-20T08:25:03.238Z,82.95
2018-12-20T08:27:30.808Z,82.30
2018-12-20T08:29:58.368Z,82.79
2018-12-20T08:32:26.046Z,82.51
2018-12-20T08:34:53.607Z,82.65
2018-12-20T08:37:21.191Z,82.52
2018-12-20T08:39:48.875Z,82.04
2018-12-20T08:42:16.433Z,83.14
2018-12-20T08:44:44.001Z,82.50
2018-12-20T08:47:11.714Z,81.69
2018-12-20T08:49:39.257Z,83.00
2018-12-20T08:52:06.780Z,83.33
2018-12-20T08:54:34.417Z,82.08
2018-12-20T08:57:01.986Z,83.26
2018-12-20T08:59:29.556Z,83.14
2018-12-20T09:01:57.308Z,83.40
2018-12-20T09:04:24.853Z,82.25
2018-12-20T09:06:52.422Z,81.68
2018-12-20T09:09:20.280Z,82.61
2018-12-20T09:11:47.824Z,83.83
2018-12-20T09:14:16.273Z,84.68
2018-12-20T09:16:43.293Z,83.86
2018-12-20T09:19:10.840Z,84.86
2018-12-20T09:21:38.373Z,84.46
2018-12-20T09:24:06.158Z,82.03
2018-12-20T09:26:33.710Z,82.11
2018-12-20T09:29:01.250Z,80.35
2018-12-20T09:31:28.878Z,81.06
2018-12-20T09:33:56.436Z,82.69
2018-12-20T09:36:24.035Z,81.72
2018-12-20T09:38:51.646Z,80.80
2018-12-20T09:41:19.201Z,80.50
2018-12-20T09:43:46.764Z,81.07
2018-12-20T09:46:14.418Z,81.32
2018-12-20T09:48:41.956Z,83.12
2018-12-20T09:51:09.565Z,81.90
2018-12-20T09:53:37.434Z,81.24
2018-12-20T09:56:05.030Z,80.94
2018-12-20T09:58:32.569Z,79.26
2018-12-20T10:01:00.161Z,80.33
2018-12-20T10:03:27.725Z,80.53
2018-12-20T10:05:55.292Z,80.36
2018-12-20T10:08:22.957Z,80.79
2018-12-20T10:10:50.547Z,80.57
2018-12-20T10:13:18.109Z,81.08
2018-12-20T10:15:45.842Z,82.45
2018-12-20T10:18:13.407Z,81.39
2018-12-20T10:20:40.950Z,80.42
2018-12-20T10:23:08.654Z,79.24
2018-12-20T10:25:36.210Z,80.00
2018-12-20T10:28:03.817Z,81.57
2018-12-20T10:30:31.542Z,81.21
2018-12-20T10:32:59.106Z,81.67
2018-12-20T10:35:26.661Z,81.32
2018-12-20T10:37:54.633Z,82.76
2018-12-20T10:40:22.197Z,81.56
2018-12-20T10:42:49.755Z,79.83
2018-12-20T10:45:17.481Z,78.08
2018-12-20T10:47:45.063Z,79.66
2018-12-20T10:50:12.616Z,77.67
2018-12-20T10:52:40.209Z,78.17
2018-12-20T10:55:07.849Z,78.50
2018-12-20T10:57:35.501Z,78.54
2018-12-20T11:00:04.523Z,78.21
2018-12-20T11:02:38.139Z,80.41
2018-12-20T11:05:05.896Z,80.59
2018-12-20T11:07:39.024Z,79.34
2018-12-20T11:10:12.424Z,78.97
2018-12-20T11:12:47.465Z,78.07
2018-12-20T11:15:15.363Z,78.68
2018-12-20T11:17:42.905Z,79.55
2018-12-20T11:20:10.493Z,81.15
2018-12-20T11:22:38.173Z,80.87
2018-12-20T11:25:05.832Z,81.46
2018-12-20T11:27:33.404Z,81.47
2018-12-20T11:30:01.150Z,82.44
2018-12-20T11:32:28.723Z,83.09
2018-12-20T11:34:56.280Z,83.00
2018-12-20T11:37:23.926Z,82.24
2018-12-20T11:39:59.193Z,83.23
2018-12-20T11:42:19.156Z,84.06
2018-12-20T11:44:46.942Z,84.72
2018-12-20T11:47:20.157Z,83.81
2018-12-20T11:49:48.071Z,86.46
2018-12-20T11:52:15.625Z,88.58
2018-12-20T11:54:43.194Z,86.86
2018-12-20T11:57:11.027Z,87.48
2018-12-20T11:59:38.600Z,87.22
2018-12-20T12:02:06.226Z,86.43
2018-12-20T12:04:33.933Z,87.65
2018-12-20T12:07:01.500Z,86.81
2018-12-20T12:09:29.025Z,84.46
2018-12-20T12:11:56.776Z,85.28
2018-12-20T12:14:24.406Z,86.08
2018-12-20T12:16:51.980Z,85.75
2018-12-20T12:19:20.085Z,86.28
2018-12-20T12:21:49.511Z,86.52
2018-12-20T12:24:15.797Z,86.00
2018-12-20T12:26:43.523Z,86.52
2018-12-20T12:29:11.073Z,87.00
2018-12-20T12:31:38.632Z,86.35
2018-12-20T12:34:06.268Z,87.02
2018-12-20T12:36:33.847Z,86.41
2018-12-20T12:39:01.437Z,86.93
2018-12-20T12:41:29.167Z,85.05
2018-12-20T12:43:56.722Z,85.15
2018-12-20T12:46:24.297Z,86.42
2018-12-20T12:48:51.943Z,87.32
2018-12-20T12:51:19.512Z,87.82
2018-12-20T12:53:47.104Z,87.80
2018-12-20T12:56:14.821Z,87.23
2018-12-20T12:58:42.393Z,87.33
2018-12-20T13:01:09.966Z,87.09
2018-12-20T13:03:37.867Z,88.36
2018-12-20T13:06:05.489Z,88.45
2018-12-20T13:08:33.061Z,87.18
2018-12-20T13:11:00.782Z,87.24
2018-12-20T13:13:28.354Z,88.44
2018-12-20T13:15:55.932Z,88.60
2018-12-20T13:18:23.869Z,87.70
2018-12-20T13:20:51.427Z,87.83
2018-12-20T13:23:19.006Z,87.29
2018-12-20T13:25:46.733Z,86.95
2018-12-20T13:28:14.317Z,88.72
2018-12-20T13:30:41.899Z,90.24
2018-12-20T13:33:09.701Z,90.13
2018-12-20T13:35:37.408Z,89.85
2018-12-20T13:38:05.010Z,89.63
2018-12-20T13:40:32.676Z,90.14
2018-12-20T13:43:00.221Z,90.47
2018-12-20T13:45:27.781Z,91.08
2018-12-20T13:47:55.620Z,91.17
2018-12-20T13:50:23.174Z,92.38
2018-12-20T13:52:50.866Z,92.65
2018-12-20T13:55:18.706Z,92.69
2018-12-20T13:57:46.256Z,92.09
2018-12-20T14:00:13.928Z,91.87
2018-12-20T14:02:41.731Z,92.22
2018-12-20T14:05:09.327Z,91.22
2018-12-20T14:07:36.849Z,91.19
2018-12-20T14:10:04.554Z,89.35
2018-12-20T14:12:32.137Z,90.29
2018-12-20T14:14:59.704Z,91.09
2018-12-20T14:17:27.363Z,91.38
2018-12-20T14:19:54.993Z,91.56
2018-12-20T14:22:22.533Z,91.21
2018-12-20T14:24:50.157Z,90.36
2018-12-20T14:27:17.730Z,90.08
2018-12-20T14:29:45.328Z,89.88
2018-12-20T14:32:13.003Z,90.00
2018-12-20T14:34:40.574Z,90.20
2018-12-20T14:37:08.140Z,89.78
2018-12-20T14:39:35.753Z,89.06
2018-12-20T14:42:03.369Z,88.99
2018-12-20T14:44:30.929Z,90.08
2018-12-20T14:46:58.761Z,90.55
2018-12-20T14:49:26.348Z,90.95
2018-12-20T14:51:53.895Z,91.18
2018-12-20T14:54:21.777Z,90.86
2018-12-20T14:56:49.332Z,90.38
2018-12-20T14:59:16.896Z,90.65
2018-12-20T15:01:44.625Z,90.49
2018-12-20T15:04:12.202Z,90.11
2018-12-20T15:06:39.814Z,90.48
2018-12-20T15:09:07.577Z,90.71
2018-12-20T15:11:35.149Z,90.99
2018-12-20T15:14:02.782Z,90.28
2018-12-20T15:16:30.670Z,89.08
2018-12-20T15:18:58.254Z,89.60
2018-12-20T15:21:25.831Z,90.05
2018-12-20T15:23:53.538Z,89.03
2018-12-20T15:26:21.107Z,88.76
2018-12-20T15:28:49.274Z,87.93
2018-12-20T15:31:17.020Z,87.67
2018-12-20T15:33:44.549Z,86.84
2018-12-20T15:36:12.140Z,87.69
2018-12-20T15:38:39.802Z,88.81
2018-12-20T15:41:07.377Z,88.97
2018-12-20T15:43:34.944Z,89.27
2018-12-20T15:46:02.747Z,89.53
2018-12-20T15:48:30.320Z,89.36
2018-12-20T15:50:57.906Z,90.36
2018-12-20T15:53:25.826Z,91.15
2018-12-20T15:55:53.385Z,91.08
2018-12-20T15:58:20.938Z,91.37
2018-12-20T16:00:48.645Z,92.02
2018-12-20T16:03:16.217Z,92.28
2018-12-20T16:05:43.766Z,91.53
2018-12-20T16:08:11.472Z,91.51
2018-12-20T16:10:39.081Z,90.16
2018-12-20T16:13:06.809Z,90.82
2018-12-20T16:15:34.391Z,91.13
2018-12-20T16:18:01.996Z,91.05
2018-12-20T16:20:29.569Z,90.84
2018-12-20T16:22:57.270Z,90.72
2018-12-20T16:25:24.869Z,90.34
2018-12-20T16:27:52.401Z,90.92
2018-12-20T16:30:20.011Z,91.11
2018-12-20T16:32:47.583Z,90.90
2018-12-20T16:35:15.128Z,89.89
2018-12-20T16:37:42.727Z,89.83
2018-12-20T16:40:10.281Z,89.87
2018-12-20T16:42:37.821Z,90.55
2018-12-20T16:45:05.601Z,90.74
2018-12-20T16:47:33.173Z,90.05
2018-12-20T16:50:05.917Z,89.90
2018-12-20T16:52:33.468Z,89.71
2018-12-20T16:55:01.041Z,90.70
2018-12-20T16:57:29.990Z,91.37
2018-12-20T16:59:57.577Z,91.30
2018-12-20T17:02:25.142Z,90.85
2018-12-20T17:04:53.020Z,90.13
2018-12-20T17:07:20.619Z,90.00
2018-12-20T17:09:48.189Z,89.90
2018-12-20T17:12:15.896Z,89.81
2018-12-20T17:14:43.529Z,90.20
2018-12-20T17:17:11.049Z,90.92
2018-12-20T17:19:38.784Z,90.26
2018-12-20T17:22:06.341Z,89.59
2018-12-20T17:24:34.745Z,90.31
2018-12-20T17:27:02.493Z,90.14
2018-12-20T17:29:30.049Z,89.94
2018-12-20T17:31:57.593Z,89.22
2018-12-20T17:34:25.191Z,88.26
2018-12-20T17:36:52.765Z,88.87
2018-12-20T17:39:20.418Z,88.85
2018-12-20T17:41:48.077Z,88.78
2018-12-20T17:44:15.670Z,89.45
2018-12-20T17:46:43.228Z,90.47
2018-12-20T17:49:10.907Z,90.86
2018-12-20T17:51:38.511Z,90.61
2018-12-20T17:54:06.122Z,90.21
2018-12-20T17:56:33.994Z,89.62
2018-12-20T17:59:01.514Z,90.23
2018-12-20T18:01:29.066Z,90.46
2018-12-20T18:03:56.693Z,89.98
2018-12-20T18:06:24.256Z,90.54
2018-12-20T18:08:52.387Z,89.54
2018-12-20T18:11:20.329Z,89.03
2018-12-20T18:13:48.216Z,88.88
2018-12-20T18:16:16.049Z,89.74
2018-12-20T18:18:43.714Z,90.61
2018-12-20T18:21:11.270Z,91.25
2018-12-20T18:23:38.833Z,90.16
2018-12-20T18:26:06.516Z,89.80
2018-12-20T18:28:34.281Z,90.22
2018-12-20T18:31:04.105Z,89.96
2018-12-20T18:33:31.962Z,90.60
2018-12-20T18:35:59.505Z,91.41
2018-12-20T18:38:27.080Z,91.87
2018-12-20T18:40:54.633Z,91.77
2018-12-20T18:43:22.187Z,92.21
2018-12-20T18:45:49.847Z,92.29
2018-12-20T18:48:17.469Z,91.16
2018-12-20T18:50:45.050Z,90.68
2018-12-20T18:53:12.576Z,90.38
2018-12-20T18:55:41.062Z,89.70
2018-12-20T18:58:08.605Z,88.42
2018-12-20T19:00:36.186Z,88.98
2018-12-20T19:03:03.817Z,88.85
2018-12-20T19:05:31.429Z,89.12
2018-12-20T19:07:58.985Z,89.07
2018-12-20T19:10:26.830Z,90.06
2018-12-20T19:12:54.377Z,90.80
2018-12-20T19:15:21.983Z,90.25
2018-12-20T19:17:49.710Z,91.27
2018-12-20T19:20:17.269Z,90.69
2018-12-20T19:22:44.842Z,90.89
2018-12-20T19:25:12.412Z,91.17
2018-12-20T19:27:39.966Z,91.36
2018-12-20T19:30:07.642Z,91.38
2018-12-20T19:32:35.405Z,91.88
2018-12-20T19:35:03.044Z,90.78
2018-12-20T19:37:30.608Z,90.88
2018-12-20T19:39:58.457Z,91.07
2018-12-20T19:42:26.044Z,90.89
2018-12-20T19:44:53.629Z,91.67
2018-12-20T19:47:21.591Z,91.73
2018-12-20T19:49:49.181Z,92.22
2018-12-20T19:52:16.780Z,92.63
2018-12-20T19:54:48.056Z,91.99
2018-12-20T19:57:12.141Z,92.42
2018-12-20T19:59:41.606Z,91.87
2018-12-20T20:02:09.212Z,92.39
2018-12-20T20:04:36.787Z,92.22
2018-12-20T20:07:04.353Z,91.69
2018-12-20T20:09:32.179Z,92.22
2018-12-20T20:11:59.730Z,91.75
2018-12-20T20:14:27.286Z,91.42
2018-12-20T20:16:54.884Z,91.89
2018-12-20T20:19:22.453Z,92.61
2018-12-20T20:21:50.005Z,92.81
2018-12-20T20:24:17.744Z,92.20
2018-12-20T20:26:45.334Z,91.99
2018-12-20T20:29:12.871Z,91.20
2018-12-20T20:31:40.564Z,91.35
2018-12-20T20:34:08.118Z,90.86
2018-12-20T20:36:35.685Z,91.57
2018-12-20T20:39:03.506Z,92.24
2018-12-20T20:41:31.090Z,91.99
2018-12-20T20:43:58.658Z,92.71
2018-12-20T20:46:26.268Z,92.40
2018-12-20T20:48:53.818Z,92.72
2018-12-20T20:51:21.372Z,92.66
2018-12-20T20:53:49.015Z,92.48
2018-12-20T20:56:16.566Z,92.27
2018-12-20T20:58:44.183Z,92.11
2018-12-20T21:01:13.758Z,92.77
2018-12-20T21:03:41.326Z,92.01
2018-12-20T21:06:08.898Z,92.40
2018-12-20T21:08:36.769Z,92.89
2018-12-20T21:11:04.332Z,92.79
2018-12-20T21:13:31.888Z,92.50
2018-12-20T21:15:59.619Z,92.02
2018-12-20T21:18:27.154Z,91.96
2018-12-20T21:20:54.706Z,92.31
2018-12-20T21:23:22.482Z,92.87
2018-12-20T21:25:50.042Z,92.84
2018-12-20T21:28:17.579Z,92.48
2018-12-20T21:30:45.280Z,92.26
2018-12-20T21:33:12.818Z,93.03
2018-12-20T21:35:40.426Z,93.18
2018-12-20T21:38:08.129Z,93.13
2018-12-20T21:40:35.676Z,92.12
2018-12-20T21:43:03.253Z,91.83
2018-12-20T21:45:31.106Z,91.38
2018-12-20T21:47:58.669Z,90.93
2018-12-20T21:50:26.242Z,90.52
2018-12-20T21:52:53.832Z,90.26
2018-12-20T21:55:21.386Z,91.60
2018-12-20T21:57:48.934Z,92.51
2018-12-20T22:00:16.661Z,92.75
2018-12-20T22:02:44.238Z,92.82
2018-12-20T22:05:11.794Z,92.28
2018-12-20T22:07:39.392Z,93.08
2018-12-20T22:10:06.981Z,92.97
2018-12-20T22:12:34.540Z,92.86
2018-12-20T22:15:02.168Z,92.99
2018-12-20T22:17:29.719Z,93.21
2018-12-20T22:19:58.648Z,93.04
2018-12-20T22:22:25.058Z,92.57
2018-12-20T22:24:52.640Z,92.24
2018-12-20T22:27:20.217Z,92.42
2018-12-20T22:29:47.912Z,93.08
2018-12-20T22:32:15.443Z,92.85
2018-12-20T22:34:43.041Z,93.58
2018-12-20T22:37:10.749Z,94.18
2018-12-20T22:39:38.290Z,93.89
2018-12-20T22:42:05.849Z,94.18
2018-12-20T22:44:33.453Z,93.34
2018-12-20T22:47:01.028Z,92.83
2018-12-20T22:49:28.571Z,92.09
2018-12-20T22:51:56.293Z,93.21
2018-12-20T22:54:23.868Z,93.19
2018-12-20T22:56:51.441Z,93.23
2018-12-20T22:59:19.081Z,93.10
2018-12-20T23:01:46.670Z,93.47
2018-12-20T23:04:14.249Z,93.06
2018-12-20T23:06:41.980Z,93.15
2018-12-20T23:09:09.533Z,93.84
2018-12-20T23:11:37.092Z,93.75
2018-12-20T23:14:04.857Z,94.29
2018-12-20T23:16:32.370Z,94.60
2018-12-20T23:18:59.904Z,94.81
2018-12-20T23:21:27.518Z,93.78
2018-12-20T23:23:55.057Z,92.76
2018-12-20T23:26:22.593Z,92.92
2018-12-20T23:28:50.295Z,93.16
2018-12-20T23:31:17.881Z,92.48
2018-12-20T23:33:45.430Z,93.01
2018-12-20T23:36:13.063Z,92.26
2018-12-20T23:38:40.629Z,93.15
2018-12-20T23:41:18.061Z,93.29
2018-12-20T23:43:45.650Z,92.69
2018-12-20T23:46:13.244Z,93.04
2018-12-20T23:48:40.868Z,94.11
2018-12-20T23:51:13.511Z,94.17
2018-12-20T23:53:36.053Z,93.92
2018-12-20T23:56:03.758Z,93.52
2018-12-20T23:58:31.293Z,93.49
